createdAt,value
2023-04-16T00:00:04.520Z,89.78
2023-04-16T00:05:34.534Z,89.87
2023-04-16T00:10:38.322Z,90.62
2023-04-16T00:15:42.159Z,91.73
2023-04-16T00:20:45.941Z,91.35
2023-04-16T00:25:49.719Z,92.20
2023-04-16T00:30:53.716Z,92.21
2023-04-16T00:35:57.436Z,92.53
2023-04-16T00:41:01.362Z,92.36
2023-04-16T00:46:07.522Z,92.41
2023-04-16T00:51:11.893Z,92.96
2023-04-16T00:56:17.533Z,92.88
2023-04-16T01:01:21.603Z,92.68
2023-04-16T01:06:26.413Z,92.65
2023-04-16T01:11:30.181Z,91.77
2023-04-16T01:16:33.902Z,91.56
2023-04-16T01:21:37.627Z,92.93
2023-04-16T01:26:41.619Z,93.62
2023-04-16T01:31:47.151Z,93.81
2023-04-16T01:37:07.980Z,93.94
2023-04-16T01:42:11.852Z,93.85
2023-04-16T01:47:15.603Z,93.90
2023-04-16T01:52:19.326Z,93.94
2023-04-16T01:57:23.102Z,94.40
2023-04-16T02:02:29.479Z,94.50
2023-04-16T02:07:33.494Z,94.63
2023-04-16T02:12:37.584Z,94.67
2023-04-16T02:17:41.387Z,94.65
2023-04-16T02:22:46.842Z,94.50
2023-04-16T02:27:51.965Z,94.40
2023-04-16T02:33:21.693Z,94.37
2023-04-16T02:38:32.115Z,94.39
2023-04-16T02:43:36.208Z,94.32
2023-04-16T02:48:41.412Z,94.26
2023-04-16T02:53:46.399Z,94.28
2023-04-16T02:58:50.769Z,94.33
2023-04-16T03:03:54.657Z,94.30
2023-04-16T03:08:58.429Z,94.14
2023-04-16T03:14:02.226Z,93.83
2023-04-16T03:19:06.430Z,93.86
2023-04-16T03:24:10.147Z,93.88
2023-04-16T03:29:14.000Z,94.00
2023-04-16T03:34:17.848Z,94.18
2023-04-16T03:39:24.396Z,94.32
2023-04-16T03:44:28.865Z,94.26
2023-04-16T03:49:32.717Z,94.50
2023-04-16T03:54:36.955Z,95.08
2023-04-16T03:59:55.858Z,95.19
2023-04-16T04:05:00.875Z,94.80
2023-04-16T04:10:06.988Z,94.73
2023-04-16T04:15:16.424Z,95.01
2023-04-16T04:20:20.660Z,95.04
2023-04-16T04:25:25.066Z,94.81
2023-04-16T04:30:29.318Z,94.80
2023-04-16T04:35:33.981Z,94.88
2023-04-16T04:40:38.724Z,94.81
2023-04-16T04:45:43.422Z,95.07
2023-04-16T04:50:47.683Z,95.11
2023-04-16T04:55:54.257Z,95.22
2023-04-16T05:01:01.495Z,95.33
2023-04-16T05:06:05.376Z,95.48
2023-04-16T05:11:09.213Z,95.56
2023-04-16T05:16:13.182Z,95.70
2023-04-16T05:21:17.126Z,95.76
2023-04-16T05:26:21.174Z,95.70
2023-04-16T05:31:24.994Z,95.68
2023-04-16T05:36:28.971Z,95.67
2023-04-16T05:41:32.849Z,95.68
2023-04-16T05:46:36.845Z,95.63
2023-04-16T05:51:41.012Z,93.80
2023-04-16T05:56:44.797Z,87.57
2023-04-16T06:01:48.528Z,86.99
2023-04-16T06:06:52.392Z,87.20
2023-04-16T06:11:56.741Z,87.38
2023-04-16T06:17:00.491Z,87.03
2023-04-16T06:22:05.758Z,87.10
2023-04-16T06:27:09.687Z,86.25
2023-04-16T06:32:13.558Z,86.54
2023-04-16T06:37:17.316Z,86.76
2023-04-16T06:42:21.202Z,86.60
2023-04-16T06:47:25.426Z,85.08
2023-04-16T06:52:29.948Z,84.86
2023-04-16T06:57:36.271Z,82.04
2023-04-16T07:02:41.479Z,82.78
2023-04-16T07:07:45.521Z,83.41
2023-04-16T07:12:49.306Z,81.71
2023-04-16T07:17:53.083Z,80.81
2023-04-16T07:22:57.686Z,82.04
2023-04-16T07:28:01.945Z,82.63
2023-04-16T07:33:06.264Z,81.36
2023-04-16T07:38:10.080Z,79.97
2023-04-16T07:43:15.947Z,79.44
2023-04-16T07:48:19.798Z,81.67
2023-04-16T07:53:23.576Z,80.21
2023-04-16T07:58:27.417Z,80.42
2023-04-16T08:03:31.735Z,80.84
2023-04-16T08:08:35.706Z,81.17
2023-04-16T08:13:39.547Z,80.56
2023-04-16T08:18:43.339Z,79.95
2023-04-16T08:23:47.077Z,80.35
2023-04-16T08:28:50.733Z,77.87
2023-04-16T08:33:54.335Z,77.27
2023-04-16T08:38:57.985Z,76.72
2023-04-16T08:44:12.494Z,74.63
2023-04-16T08:49:21.511Z,73.18
2023-04-16T08:54:56.767Z,70.76
2023-04-16T09:00:02.921Z,69.74
2023-04-16T09:05:08.340Z,69.73
2023-04-16T09:10:18.409Z,68.82
2023-04-16T09:15:24.028Z,69.32
2023-04-16T09:20:27.741Z,68.92
2023-04-16T09:25:35.571Z,68.67
2023-04-16T09:30:39.518Z,69.56
2023-04-16T09:35:51.232Z,70.19
2023-04-16T09:41:08.673Z,67.93
2023-04-16T09:46:15.143Z,65.98
2023-04-16T09:51:19.107Z,66.61
2023-04-16T09:56:26.580Z,65.27
2023-04-16T10:01:31.530Z,64.99
2023-04-16T10:06:36.706Z,64.12
2023-04-16T10:11:40.444Z,64.75
2023-04-16T10:16:44.347Z,62.31
2023-04-16T10:21:48.712Z,63.03
2023-04-16T10:26:53.451Z,61.80
2023-04-16T10:31:58.047Z,63.10
2023-04-16T10:37:01.727Z,59.76
2023-04-16T10:42:13.200Z,58.26
2023-04-16T10:47:16.926Z,56.85
2023-04-16T10:52:22.824Z,57.54
2023-04-16T10:57:29.761Z,52.21
2023-04-16T11:02:33.600Z,54.38
2023-04-16T11:07:39.644Z,55.32
2023-04-16T11:12:47.842Z,57.26
2023-04-16T11:17:52.967Z,55.71
2023-04-16T11:22:58.024Z,52.85
2023-04-16T11:28:02.953Z,53.90
2023-04-16T11:33:09.182Z,56.46
2023-04-16T11:38:12.937Z,55.43
2023-04-16T11:43:17.310Z,52.93
2023-04-16T11:48:22.997Z,54.16
2023-04-16T11:53:27.388Z,54.07
2023-04-16T11:58:31.400Z,54.52
2023-04-16T12:03:49.947Z,53.74
2023-04-16T12:08:53.700Z,54.43
2023-04-16T12:14:13.522Z,55.03
2023-04-16T12:19:17.559Z,55.10
2023-04-16T12:24:21.211Z,56.01
2023-04-16T12:29:26.696Z,54.79
2023-04-16T12:34:48.619Z,54.33
2023-04-16T12:39:53.155Z,53.80
2023-04-16T12:44:57.091Z,53.71
2023-04-16T12:50:01.029Z,52.89
2023-04-16T12:55:05.207Z,54.07
2023-04-16T13:00:13.011Z,54.94
2023-04-16T13:05:18.834Z,55.15
2023-04-16T13:10:23.815Z,55.40
2023-04-16T13:15:27.500Z,54.77
2023-04-16T13:20:31.878Z,54.94
2023-04-16T13:25:35.948Z,55.19
2023-04-16T13:30:40.232Z,55.49
2023-04-16T13:35:43.999Z,54.09
2023-04-16T13:40:47.941Z,54.93
2023-04-16T13:45:53.038Z,55.09
2023-04-16T13:50:57.108Z,54.82
2023-04-16T13:56:04.083Z,55.87
2023-04-16T14:01:10.698Z,55.14
2023-04-16T14:06:15.449Z,55.24
2023-04-16T14:11:19.370Z,53.37
2023-04-16T14:16:23.457Z,52.09
2023-04-16T14:21:28.149Z,52.09
2023-04-16T14:26:32.057Z,51.21
2023-04-16T14:31:37.185Z,52.44
2023-04-16T14:36:41.857Z,50.88
2023-04-16T14:41:46.932Z,51.42
2023-04-16T14:46:51.785Z,51.99
2023-04-16T14:51:57.020Z,51.21
2023-04-16T14:57:02.417Z,52.18
2023-04-16T15:02:07.797Z,49.95
2023-04-16T15:07:12.217Z,50.94
2023-04-16T15:12:19.158Z,50.31
2023-04-16T15:17:23.882Z,48.62
2023-04-16T15:22:29.420Z,49.49
2023-04-16T15:27:33.290Z,47.85
2023-04-16T15:32:37.749Z,47.33
2023-04-16T15:37:41.936Z,48.86
2023-04-16T15:42:47.082Z,48.41
2023-04-16T15:47:52.304Z,46.58
2023-04-16T15:52:58.324Z,46.65
2023-04-16T15:58:04.133Z,47.73
2023-04-16T16:03:10.595Z,47.75
2023-04-16T16:08:16.674Z,47.44
2023-04-16T16:13:22.359Z,47.28
2023-04-16T16:18:27.262Z,48.72
2023-04-16T16:23:32.109Z,49.69
2023-04-16T16:28:39.348Z,50.87
2023-04-16T16:33:45.791Z,51.29
2023-04-16T16:38:51.587Z,52.12
2023-04-16T16:43:57.488Z,52.66
2023-04-16T16:49:05.733Z,53.89
2023-04-16T16:54:11.464Z,55.29
2023-04-16T16:59:15.829Z,55.64
2023-04-16T17:04:21.040Z,57.14
2023-04-16T17:09:26.445Z,57.45
2023-04-16T17:14:31.174Z,59.33
2023-04-16T17:19:37.300Z,60.98
2023-04-16T17:24:43.145Z,61.91
2023-04-16T17:29:48.645Z,63.53
2023-04-16T17:34:57.177Z,64.30
2023-04-16T17:40:03.535Z,65.92
2023-04-16T17:45:09.555Z,67.00
2023-04-16T17:50:14.273Z,68.65
2023-04-16T17:55:22.706Z,67.95
2023-04-16T18:00:29.161Z,67.85
2023-04-16T18:05:35.814Z,69.33
2023-04-16T18:10:45.710Z,70.16
2023-04-16T18:15:52.623Z,70.97
2023-04-16T18:21:00.625Z,71.22
2023-04-16T18:26:08.498Z,70.12
2023-04-16T18:31:20.529Z,70.56
2023-04-16T18:36:41.940Z,70.92
2023-04-16T18:41:49.026Z,70.76
2023-04-16T18:46:54.844Z,71.26
2023-04-16T18:51:59.942Z,72.64
2023-04-16T18:57:06.817Z,73.00
2023-04-16T19:02:13.153Z,74.47
2023-04-16T19:07:19.677Z,74.73
2023-04-16T19:12:25.514Z,74.58
2023-04-16T19:17:32.720Z,74.72
2023-04-16T19:22:41.354Z,74.77
2023-04-16T19:27:47.431Z,74.28
2023-04-16T19:32:53.824Z,74.53
2023-04-16T19:38:00.514Z,75.08
2023-04-16T19:43:08.862Z,75.26
2023-04-16T19:48:14.979Z,74.81
2023-04-16T19:53:20.689Z,75.21
2023-04-16T19:58:28.540Z,75.25
2023-04-16T20:03:33.357Z,76.11
2023-04-16T20:08:39.640Z,76.46
2023-04-16T20:13:50.552Z,76.91
2023-04-16T20:18:56.496Z,77.68
2023-04-16T20:24:01.164Z,78.31
2023-04-16T20:29:07.257Z,78.19
2023-04-16T20:34:11.260Z,77.97
2023-04-16T20:39:21.146Z,78.48
2023-04-16T20:44:35.657Z,78.07
2023-04-16T20:49:41.068Z,77.82
2023-04-16T20:54:46.184Z,78.31
2023-04-16T20:59:49.913Z,77.80
2023-04-16T21:04:53.993Z,77.47
2023-04-16T21:09:57.724Z,77.90
2023-04-16T21:15:01.454Z,77.51
2023-04-16T21:20:08.126Z,79.00
2023-04-16T21:25:12.052Z,80.61
2023-04-16T21:30:17.508Z,79.65
2023-04-16T21:35:21.324Z,81.01
2023-04-16T21:40:25.104Z,81.73
2023-04-16T21:45:30.456Z,81.86
2023-04-16T21:50:34.736Z,82.00
2023-04-16T21:55:41.108Z,81.96
2023-04-16T22:00:45.090Z,81.85
2023-04-16T22:05:48.931Z,81.76
2023-04-16T22:10:52.706Z,82.24
2023-04-16T22:15:56.664Z,84.19
2023-04-16T22:21:01.542Z,85.11
2023-04-16T22:26:05.454Z,86.53
2023-04-16T22:31:10.537Z,87.32
2023-04-16T22:36:14.224Z,88.51
2023-04-16T22:41:17.810Z,89.18
2023-04-16T22:46:22.694Z,89.48
2023-04-16T22:51:26.470Z,89.80
2023-04-16T22:56:31.440Z,89.98
2023-04-16T23:01:35.479Z,90.27
2023-04-16T23:06:40.961Z,90.46
2023-04-16T23:11:44.718Z,90.33
2023-04-16T23:16:48.556Z,90.01
2023-04-16T23:21:52.397Z,89.90
2023-04-16T23:26:56.497Z,89.85
2023-04-16T23:32:00.332Z,90.23
2023-04-16T23:37:03.978Z,90.38
2023-04-16T23:42:07.733Z,89.99
2023-04-16T23:47:11.463Z,90.10
2023-04-16T23:52:15.220Z,90.85
2023-04-16T23:57:19.576Z,91.35
